createdAt,value
2019-01-08T00:01:25.747Z,91.60
2019-01-08T00:03:59.767Z,91.60
2019-01-08T00:06:31.285Z,91.70
2019-01-08T00:09:02.413Z,91.70
2019-01-08T00:11:31.973Z,91.80
2019-01-08T00:14:01.438Z,92.00
2019-01-08T00:16:30.916Z,91.80
2019-01-08T00:19:00.479Z,91.70
2019-01-08T00:21:30.842Z,91.70
2019-01-08T00:24:01.076Z,91.70
2019-01-08T00:26:32.239Z,91.80
2019-01-08T00:29:02.567Z,91.90
2019-01-08T00:31:32.017Z,91.70
2019-01-08T00:34:01.210Z,91.70
2019-01-08T00:36:30.679Z,91.70
2019-01-08T00:39:04.263Z,91.60
2019-01-08T00:41:33.745Z,91.60
2019-01-08T00:44:03.304Z,91.50
2019-01-08T00:46:32.738Z,91.40
2019-01-08T00:49:03.078Z,91.40
2019-01-08T00:51:32.290Z,91.40
2019-01-08T00:54:01.688Z,91.30
2019-01-08T00:56:31.183Z,91.30
2019-01-08T00:59:02.746Z,91.20
2019-01-08T01:01:32.307Z,91.20
2019-01-08T01:04:01.742Z,91.20
2019-01-08T01:06:32.111Z,91.20
2019-01-08T01:09:05.175Z,91.30
2019-01-08T01:11:34.401Z,91.20
2019-01-08T01:14:03.959Z,91.20
2019-01-08T01:16:39.121Z,91.20
2019-01-08T01:19:09.464Z,91.30
2019-01-08T01:21:38.934Z,91.30
2019-01-08T01:24:09.253Z,91.40
2019-01-08T01:26:41.334Z,91.50
2019-01-08T01:29:11.548Z,91.40
2019-01-08T01:31:40.706Z,91.40
2019-01-08T01:34:12.228Z,91.50
2019-01-08T01:36:41.709Z,91.40
2019-01-08T01:39:11.207Z,91.50
2019-01-08T01:41:40.795Z,91.50
2019-01-08T01:44:10.219Z,91.50
2019-01-08T01:46:39.776Z,91.50
2019-01-08T01:49:09.275Z,91.50
2019-01-08T01:51:40.784Z,92.00
2019-01-08T01:54:15.552Z,91.40
2019-01-08T01:56:45.937Z,91.50
2019-01-08T01:59:15.104Z,91.60
2019-01-08T02:01:51.547Z,91.60
2019-01-08T02:04:21.007Z,91.70
2019-01-08T02:06:52.144Z,91.70
2019-01-08T02:09:23.334Z,91.70
2019-01-08T02:11:52.794Z,91.70
2019-01-08T02:14:21.952Z,91.70
2019-01-08T02:16:51.452Z,91.70
2019-01-08T02:19:20.901Z,91.70
2019-01-08T02:21:51.232Z,91.70
2019-01-08T02:24:20.503Z,91.70
2019-01-08T02:26:49.693Z,91.70
2019-01-08T02:29:20.199Z,91.80
2019-01-08T02:31:49.837Z,91.80
2019-01-08T02:34:19.162Z,91.90
2019-01-08T02:36:48.663Z,91.90
2019-01-08T02:39:17.854Z,92.00
2019-01-08T02:41:47.354Z,92.00
2019-01-08T02:44:19.322Z,92.00
2019-01-08T02:46:48.934Z,92.00
2019-01-08T02:49:18.695Z,92.10
2019-01-08T02:51:48.520Z,92.10
2019-01-08T02:54:18.183Z,92.20
2019-01-08T02:56:47.667Z,92.10
2019-01-08T02:59:24.916Z,92.20
2019-01-08T03:01:48.274Z,92.40
2019-01-08T03:04:17.739Z,92.30
2019-01-08T03:06:47.311Z,92.50
2019-01-08T03:09:16.761Z,92.50
2019-01-08T03:11:46.252Z,92.60
2019-01-08T03:14:15.431Z,92.60
2019-01-08T03:16:44.957Z,92.70
2019-01-08T03:19:14.363Z,92.80
2019-01-08T03:21:43.538Z,92.60
2019-01-08T03:24:13.007Z,92.70
2019-01-08T03:26:42.449Z,92.70
2019-01-08T03:29:11.623Z,92.60
2019-01-08T03:31:41.113Z,92.70
2019-01-08T03:34:10.575Z,92.70
2019-01-08T03:36:40.082Z,92.80
2019-01-08T03:39:09.673Z,92.70
2019-01-08T03:41:39.090Z,92.70
2019-01-08T03:44:08.599Z,92.60
2019-01-08T03:46:38.127Z,92.60
2019-01-08T03:49:07.606Z,92.60
2019-01-08T03:51:37.141Z,92.70
2019-01-08T03:54:06.721Z,92.80
2019-01-08T03:56:38.993Z,92.90
2019-01-08T03:59:09.324Z,93.40
2019-01-08T04:01:39.680Z,93.30
2019-01-08T04:04:09.144Z,93.30
2019-01-08T04:06:39.468Z,93.50
2019-01-08T04:09:08.994Z,93.50
2019-01-08T04:11:39.309Z,93.40
2019-01-08T04:14:08.865Z,93.20
2019-01-08T04:16:38.377Z,93.10
2019-01-08T04:19:07.816Z,93.20
2019-01-08T04:21:36.979Z,93.00
2019-01-08T04:24:07.117Z,93.20
2019-01-08T04:26:36.324Z,93.20
2019-01-08T04:29:06.652Z,93.10
2019-01-08T04:31:37.029Z,93.10
2019-01-08T04:34:06.471Z,93.00
2019-01-08T04:36:36.810Z,93.10
2019-01-08T04:39:06.606Z,93.30
2019-01-08T04:41:35.813Z,93.20
2019-01-08T04:44:05.041Z,93.40
2019-01-08T04:46:34.457Z,93.40
2019-01-08T04:49:03.909Z,93.40
2019-01-08T04:51:33.071Z,93.40
2019-01-08T04:54:03.493Z,93.30
2019-01-08T04:56:35.298Z,93.50
2019-01-08T04:59:05.661Z,93.40
2019-01-08T05:01:35.232Z,93.50
2019-01-08T05:04:04.682Z,93.60
2019-01-08T05:06:34.153Z,93.70
2019-01-08T05:09:04.443Z,93.80
2019-01-08T05:11:33.990Z,93.80
2019-01-08T05:14:03.557Z,94.00
2019-01-08T05:16:33.030Z,94.00
2019-01-08T05:19:02.502Z,94.00
2019-01-08T05:21:32.012Z,94.10
2019-01-08T05:24:01.225Z,94.10
2019-01-08T05:26:31.437Z,94.20
2019-01-08T05:29:00.592Z,94.30
2019-01-08T05:31:32.149Z,94.20
2019-01-08T05:34:02.386Z,94.30
2019-01-08T05:36:38.074Z,94.50
2019-01-08T05:39:07.632Z,94.30
2019-01-08T05:41:37.123Z,94.40
2019-01-08T05:44:06.672Z,94.50
2019-01-08T05:46:36.073Z,94.60
2019-01-08T05:49:05.574Z,94.50
2019-01-08T05:51:34.850Z,94.70
2019-01-08T05:54:04.264Z,94.60
2019-01-08T05:56:33.713Z,94.60
2019-01-08T05:59:04.075Z,94.70
2019-01-08T06:01:33.998Z,94.80
2019-01-08T06:04:03.449Z,94.90
2019-01-08T06:06:32.949Z,95.10
2019-01-08T06:09:02.581Z,95.10
2019-01-08T06:11:37.680Z,95.20
2019-01-08T06:14:07.231Z,95.20
2019-01-08T06:16:36.391Z,95.20
2019-01-08T06:19:05.793Z,95.40
2019-01-08T06:21:36.277Z,95.50
2019-01-08T06:24:05.607Z,95.40
2019-01-08T06:26:34.780Z,95.50
2019-01-08T06:29:04.324Z,95.50
2019-01-08T06:31:33.712Z,95.60
2019-01-08T06:34:02.871Z,95.70
2019-01-08T06:36:32.373Z,95.70
2019-01-08T06:39:01.847Z,95.80
2019-01-08T06:41:31.343Z,96.00
2019-01-08T06:44:01.724Z,96.00
2019-01-08T06:46:31.160Z,96.10
2019-01-08T06:49:00.717Z,96.20
2019-01-08T06:51:30.198Z,96.30
2019-01-08T06:53:59.689Z,96.50
2019-01-08T06:56:37.015Z,96.60
2019-01-08T06:59:27.652Z,96.90
2019-01-08T07:01:56.931Z,97.10
2019-01-08T07:04:34.164Z,97.30
2019-01-08T07:07:04.534Z,97.50
2019-01-08T07:09:43.891Z,97.50
2019-01-08T07:12:13.338Z,97.70
2019-01-08T07:14:42.840Z,98.00
2019-01-08T07:17:12.318Z,98.30
2019-01-08T07:19:41.554Z,98.50
2019-01-08T07:22:10.954Z,98.60
2019-01-08T07:24:40.447Z,98.90
2019-01-08T07:27:16.435Z,99.40
2019-01-08T07:29:41.078Z,99.90
2019-01-08T07:32:10.236Z,99.90
2019-01-08T07:34:39.727Z,99.90
2019-01-08T07:37:09.200Z,99.90
2019-01-08T07:39:38.693Z,99.90
2019-01-08T07:42:07.907Z,99.90
2019-01-08T07:44:37.287Z,99.90
2019-01-08T07:47:06.467Z,99.90
2019-01-08T07:49:35.961Z,99.90
2019-01-08T07:52:06.236Z,99.90
2019-01-08T07:54:35.968Z,99.90
2019-01-08T07:57:06.529Z,99.90
2019-01-08T07:59:35.979Z,99.90
2019-01-08T08:02:06.818Z,99.90
2019-01-08T08:04:37.060Z,99.90
2019-01-08T08:07:06.538Z,99.90
2019-01-08T08:09:36.874Z,99.90
2019-01-08T08:12:12.146Z,99.90
2019-01-08T08:14:43.644Z,99.90
2019-01-08T08:17:12.874Z,99.90
2019-01-08T08:19:44.831Z,99.90
2019-01-08T08:22:14.286Z,99.90
2019-01-08T08:24:43.724Z,99.90
2019-01-08T08:27:12.918Z,99.90
2019-01-08T08:29:50.502Z,99.90
2019-01-08T08:32:19.715Z,99.90
2019-01-08T08:34:58.128Z,99.90
2019-01-08T08:37:27.667Z,99.90
2019-01-08T08:39:57.142Z,99.90
2019-01-08T08:42:26.643Z,99.90
2019-01-08T08:44:56.204Z,99.90
2019-01-08T08:47:26.472Z,99.90
2019-01-08T08:49:55.651Z,99.90
2019-01-08T08:52:25.095Z,99.90
2019-01-08T08:54:54.633Z,99.90
2019-01-08T08:57:24.087Z,99.90
2019-01-08T08:59:55.687Z,99.90
2019-01-08T09:02:25.136Z,99.90
2019-01-08T09:04:54.731Z,99.90
2019-01-08T09:07:24.174Z,99.90
2019-01-08T09:09:53.728Z,99.90
2019-01-08T09:12:23.145Z,99.90
2019-01-08T09:14:52.367Z,99.90
2019-01-08T09:17:21.788Z,99.90
2019-01-08T09:19:51.265Z,99.90
2019-01-08T09:22:20.457Z,99.90
2019-01-08T09:24:49.634Z,99.90
2019-01-08T09:27:22.268Z,99.90
2019-01-08T09:29:51.781Z,99.90
2019-01-08T09:32:21.017Z,99.90
2019-01-08T09:34:50.387Z,99.90
2019-01-08T09:37:19.891Z,99.90
2019-01-08T09:39:49.363Z,99.90
2019-01-08T09:42:19.693Z,99.90
2019-01-08T09:44:49.235Z,99.90
2019-01-08T09:47:18.700Z,99.90
2019-01-08T09:49:47.869Z,99.90
2019-01-08T09:52:17.361Z,99.90
2019-01-08T09:54:46.592Z,99.90
2019-01-08T09:57:15.763Z,99.90
2019-01-08T09:59:44.966Z,99.90
2019-01-08T10:02:14.152Z,99.90
2019-01-08T10:04:43.334Z,99.90
2019-01-08T10:07:12.555Z,99.90
2019-01-08T10:09:41.718Z,99.90
2019-01-08T10:12:10.894Z,99.90
2019-01-08T10:14:40.110Z,99.90
2019-01-08T10:17:09.291Z,99.90
2019-01-08T10:19:38.607Z,99.90
2019-01-08T10:22:07.847Z,99.90
2019-01-08T10:24:37.188Z,99.90
2019-01-08T10:27:06.681Z,99.90
2019-01-08T10:29:35.873Z,99.90
2019-01-08T10:32:08.160Z,99.90
2019-01-08T10:34:39.723Z,99.90
2019-01-08T10:37:09.250Z,99.90
2019-01-08T10:39:38.418Z,99.90
2019-01-08T10:42:07.880Z,99.90
2019-01-08T10:44:37.429Z,99.90
2019-01-08T10:47:06.898Z,99.90
2019-01-08T10:49:36.337Z,99.90
2019-01-08T10:52:05.583Z,99.90
2019-01-08T10:54:34.937Z,99.90
2019-01-08T10:57:04.237Z,99.90
2019-01-08T10:59:33.625Z,99.90
2019-01-08T11:02:03.045Z,99.90
2019-01-08T11:04:32.205Z,99.90
2019-01-08T11:07:01.742Z,99.90
2019-01-08T11:09:32.011Z,99.90
2019-01-08T11:12:01.545Z,99.90
2019-01-08T11:14:31.019Z,99.90
2019-01-08T11:17:01.319Z,99.90
2019-01-08T11:19:30.493Z,99.90
2019-01-08T11:21:59.935Z,99.90
2019-01-08T11:24:35.138Z,99.90
2019-01-08T11:27:04.313Z,99.90
2019-01-08T11:29:33.778Z,99.90
2019-01-08T11:32:02.948Z,99.90
2019-01-08T11:34:32.186Z,99.90
2019-01-08T11:37:01.509Z,99.90
2019-01-08T11:39:30.939Z,99.90
2019-01-08T11:42:00.105Z,99.90
2019-01-08T11:44:29.677Z,99.90
2019-01-08T11:46:59.041Z,99.90
2019-01-08T11:49:28.220Z,99.90
2019-01-08T11:51:57.681Z,99.90
2019-01-08T11:54:27.995Z,99.90
2019-01-08T11:56:57.477Z,99.90
2019-01-08T11:59:26.677Z,99.90
2019-01-08T12:01:57.562Z,99.90
2019-01-08T12:04:27.242Z,99.90
2019-01-08T12:06:56.826Z,99.90
2019-01-08T12:09:26.267Z,99.90
2019-01-08T12:11:56.250Z,99.90
2019-01-08T12:14:26.519Z,99.90
2019-01-08T12:16:56.066Z,99.90
2019-01-08T12:19:29.584Z,99.90
2019-01-08T12:21:58.790Z,99.90
2019-01-08T12:24:28.197Z,99.90
2019-01-08T12:26:57.681Z,99.90
2019-01-08T12:29:34.617Z,99.90
2019-01-08T12:32:06.385Z,99.90
2019-01-08T12:34:35.211Z,99.90
2019-01-08T12:37:04.424Z,99.90
2019-01-08T12:39:34.651Z,99.90
2019-01-08T12:42:04.213Z,99.90
2019-01-08T12:44:33.732Z,99.90
2019-01-08T12:47:03.154Z,99.90
2019-01-08T12:49:32.321Z,99.90
2019-01-08T12:52:01.806Z,99.90
2019-01-08T12:54:31.267Z,99.90
2019-01-08T12:57:00.778Z,99.90
2019-01-08T12:59:30.460Z,99.90
2019-01-08T13:01:59.799Z,99.90
2019-01-08T13:04:29.277Z,99.90
2019-01-08T13:06:58.486Z,99.90
2019-01-08T13:09:27.883Z,99.90
2019-01-08T13:11:57.121Z,99.90
2019-01-08T13:14:26.556Z,99.90
2019-01-08T13:16:56.050Z,99.90
2019-01-08T13:19:25.600Z,99.90
2019-01-08T13:21:55.162Z,99.90
2019-01-08T13:24:24.495Z,99.90
2019-01-08T13:26:54.005Z,99.90
2019-01-08T13:29:23.226Z,99.90
2019-01-08T13:31:52.626Z,99.90
2019-01-08T13:34:22.156Z,99.90
2019-01-08T13:36:51.683Z,99.90
2019-01-08T13:39:21.151Z,99.90
2019-01-08T13:41:50.706Z,99.90
2019-01-08T13:44:20.249Z,99.90
2019-01-08T13:46:49.725Z,99.90
2019-01-08T13:49:19.199Z,99.90
2019-01-08T13:51:48.788Z,99.90
2019-01-08T13:54:18.170Z,99.90
2019-01-08T13:56:48.971Z,99.90
2019-01-08T13:59:18.473Z,99.90
2019-01-08T14:01:47.919Z,99.90
2019-01-08T14:04:17.504Z,99.90
2019-01-08T14:06:46.972Z,99.90
2019-01-08T14:09:16.464Z,99.90
2019-01-08T14:11:45.935Z,99.90
2019-01-08T14:14:15.458Z,99.90
2019-01-08T14:16:44.962Z,99.90
2019-01-08T14:19:15.308Z,99.90
2019-01-08T14:21:44.467Z,99.90
2019-01-08T14:24:13.864Z,99.90
2019-01-08T14:26:43.407Z,99.90
2019-01-08T14:29:12.874Z,99.90
2019-01-08T14:31:42.465Z,99.90
2019-01-08T14:34:12.746Z,99.90
2019-01-08T14:36:41.911Z,99.90
2019-01-08T14:39:13.383Z,99.90
2019-01-08T14:41:43.803Z,99.90
2019-01-08T14:44:13.191Z,99.90
2019-01-08T14:46:43.515Z,99.90
2019-01-08T14:49:14.704Z,99.90
2019-01-08T14:51:44.986Z,99.90
2019-01-08T14:54:16.126Z,99.90
2019-01-08T14:56:46.504Z,99.90
2019-01-08T14:59:16.778Z,99.90
2019-01-08T15:01:46.023Z,99.90
2019-01-08T15:04:15.416Z,99.90
2019-01-08T15:06:44.941Z,99.90
2019-01-08T15:09:15.291Z,99.90
2019-01-08T15:11:44.768Z,99.90
2019-01-08T15:14:14.234Z,99.90
2019-01-08T15:16:43.732Z,99.90
2019-01-08T15:19:13.303Z,99.90
2019-01-08T15:21:42.714Z,99.90
2019-01-08T15:24:13.057Z,99.90
2019-01-08T15:26:42.587Z,99.90
2019-01-08T15:29:13.713Z,99.90
2019-01-08T15:31:42.955Z,99.90
2019-01-08T15:34:13.187Z,99.90
2019-01-08T15:36:46.149Z,99.90
2019-01-08T15:39:20.786Z,99.90
2019-01-08T15:41:50.646Z,99.90
2019-01-08T15:44:20.171Z,99.90
2019-01-08T15:46:49.376Z,99.90
2019-01-08T15:49:18.712Z,99.90
2019-01-08T15:51:48.907Z,99.90
2019-01-08T15:54:18.105Z,99.90
2019-01-08T15:56:47.302Z,99.90
2019-01-08T15:59:16.462Z,99.90
2019-01-08T16:01:45.646Z,99.90
2019-01-08T16:04:14.971Z,99.90
2019-01-08T16:06:44.145Z,99.90
2019-01-08T16:09:13.630Z,99.90
2019-01-08T16:11:43.088Z,99.90
2019-01-08T16:14:12.256Z,99.90
2019-01-08T16:16:41.740Z,99.90
2019-01-08T16:19:11.211Z,99.90
2019-01-08T16:21:40.470Z,99.90
2019-01-08T16:24:11.113Z,99.90
2019-01-08T16:26:41.355Z,99.90
2019-01-08T16:29:12.522Z,99.90
2019-01-08T16:31:42.038Z,99.90
2019-01-08T16:34:11.213Z,99.90
2019-01-08T16:36:42.646Z,99.90
2019-01-08T16:39:14.547Z,99.90
2019-01-08T16:41:43.724Z,99.90
2019-01-08T16:44:14.261Z,99.90
2019-01-08T16:46:55.867Z,99.90
2019-01-08T16:49:25.327Z,99.90
2019-01-08T16:51:54.819Z,99.90
2019-01-08T16:54:24.030Z,99.90
2019-01-08T16:56:53.430Z,99.90
2019-01-08T16:59:22.925Z,99.90
2019-01-08T17:01:52.147Z,99.90
2019-01-08T17:04:21.531Z,99.90
2019-01-08T17:06:50.691Z,99.90
2019-01-08T17:09:20.179Z,99.90
2019-01-08T17:11:49.856Z,99.90
2019-01-08T17:14:19.151Z,99.90
2019-01-08T17:16:48.365Z,99.90
2019-01-08T17:19:17.751Z,99.90
2019-01-08T17:21:46.913Z,99.90
2019-01-08T17:24:16.433Z,99.90
2019-01-08T17:26:45.873Z,99.90
2019-01-08T17:29:16.196Z,99.90
2019-01-08T17:31:45.798Z,99.90
2019-01-08T17:34:15.210Z,99.90
2019-01-08T17:36:44.377Z,99.90
2019-01-08T17:39:13.631Z,99.90
2019-01-08T17:41:45.476Z,99.90
2019-01-08T17:44:15.737Z,99.90
2019-01-08T17:46:45.202Z,99.90
2019-01-08T17:49:15.504Z,99.90
2019-01-08T17:51:45.910Z,99.90
2019-01-08T17:54:16.225Z,99.90
2019-01-08T17:56:46.057Z,99.90
2019-01-08T17:59:19.017Z,99.90
2019-01-08T18:01:52.108Z,99.90
2019-01-08T18:04:21.546Z,99.90
2019-01-08T18:06:50.852Z,99.90
2019-01-08T18:09:20.157Z,99.90
2019-01-08T18:11:49.637Z,99.90
2019-01-08T18:14:18.892Z,99.90
2019-01-08T18:16:48.299Z,99.90
2019-01-08T18:19:17.847Z,99.90
2019-01-08T18:21:47.272Z,99.90
2019-01-08T18:24:17.636Z,99.90
2019-01-08T18:26:47.201Z,99.90
2019-01-08T18:29:16.585Z,99.90
2019-01-08T18:31:45.803Z,99.90
2019-01-08T18:34:15.203Z,99.90
2019-01-08T18:36:44.439Z,99.90
2019-01-08T18:39:14.680Z,99.90
2019-01-08T18:41:44.524Z,99.90
2019-01-08T18:44:13.832Z,99.90
2019-01-08T18:46:43.183Z,99.90
2019-01-08T18:49:12.673Z,99.90
2019-01-08T18:51:42.255Z,99.90
2019-01-08T18:54:11.773Z,99.90
2019-01-08T18:56:41.198Z,99.90
2019-01-08T18:59:10.767Z,99.90
2019-01-08T19:01:40.199Z,99.90
2019-01-08T19:04:11.214Z,99.90
2019-01-08T19:06:40.502Z,99.90
2019-01-08T19:09:27.709Z,99.90
2019-01-08T19:11:57.264Z,99.90
2019-01-08T19:14:29.770Z,99.90
2019-01-08T19:16:59.009Z,99.90
2019-01-08T19:19:28.565Z,99.90
2019-01-08T19:21:57.915Z,99.90
2019-01-08T19:24:27.475Z,99.90
2019-01-08T19:26:58.535Z,99.90
2019-01-08T19:29:28.195Z,99.90
2019-01-08T19:31:58.442Z,99.90
2019-01-08T19:34:27.908Z,99.90
2019-01-08T19:36:57.092Z,99.90
2019-01-08T19:39:26.565Z,99.90
2019-01-08T19:41:56.002Z,99.90
2019-01-08T19:44:25.294Z,99.90
2019-01-08T19:46:54.663Z,99.90
2019-01-08T19:49:24.121Z,99.90
2019-01-08T19:51:53.310Z,99.90
2019-01-08T19:54:22.811Z,99.90
2019-01-08T19:56:52.227Z,99.90
2019-01-08T19:59:22.533Z,99.90
2019-01-08T20:01:51.776Z,99.90
2019-01-08T20:04:21.171Z,99.90
2019-01-08T20:06:50.687Z,99.90
2019-01-08T20:09:25.153Z,99.90
2019-01-08T20:11:51.308Z,99.90
2019-01-08T20:14:22.515Z,99.90
2019-01-08T20:16:51.983Z,99.90
2019-01-08T20:19:21.522Z,99.90
2019-01-08T20:21:51.037Z,99.90
2019-01-08T20:24:23.139Z,99.90
2019-01-08T20:26:52.437Z,99.90
2019-01-08T20:29:22.011Z,99.90
2019-01-08T20:31:51.530Z,99.90
2019-01-08T20:34:26.508Z,99.90
2019-01-08T20:36:52.099Z,99.90
2019-01-08T20:39:22.469Z,99.90
2019-01-08T20:41:51.644Z,99.90
2019-01-08T20:44:21.102Z,99.90
2019-01-08T20:46:50.549Z,99.90
2019-01-08T20:49:20.990Z,99.90
2019-01-08T20:51:52.400Z,99.90
2019-01-08T20:54:21.615Z,99.90
2019-01-08T20:56:51.816Z,99.90
2019-01-08T20:59:21.406Z,99.90
2019-01-08T21:01:50.955Z,99.90
2019-01-08T21:04:20.414Z,99.90
2019-01-08T21:06:49.851Z,99.90
2019-01-08T21:09:19.457Z,99.90
2019-01-08T21:11:48.854Z,99.90
2019-01-08T21:14:18.387Z,99.90
2019-01-08T21:16:48.125Z,99.90
2019-01-08T21:19:17.779Z,99.90
2019-01-08T21:21:50.215Z,99.90
2019-01-08T21:24:28.183Z,99.90
2019-01-08T21:26:51.618Z,99.90
2019-01-08T21:29:20.791Z,99.90
2019-01-08T21:31:50.270Z,99.90
2019-01-08T21:34:19.755Z,99.90
2019-01-08T21:36:49.232Z,99.90
2019-01-08T21:39:18.487Z,99.90
2019-01-08T21:41:47.825Z,99.90
2019-01-08T21:44:17.013Z,99.90
2019-01-08T21:46:46.604Z,99.90
2019-01-08T21:49:16.330Z,99.90
2019-01-08T21:51:45.853Z,99.90
2019-01-08T21:54:15.139Z,99.90
2019-01-08T21:56:45.275Z,99.90
2019-01-08T21:59:15.695Z,99.90
2019-01-08T22:01:45.160Z,99.90
2019-01-08T22:04:14.699Z,99.90
2019-01-08T22:06:44.280Z,99.90
2019-01-08T22:09:13.813Z,99.90
2019-01-08T22:11:43.222Z,99.90
2019-01-08T22:14:13.522Z,99.90
2019-01-08T22:16:43.016Z,99.90
2019-01-08T22:19:12.469Z,99.90
2019-01-08T22:21:41.683Z,99.90
2019-01-08T22:24:11.089Z,99.90
2019-01-08T22:26:40.617Z,99.90
2019-01-08T22:29:10.062Z,99.90
2019-01-08T22:31:39.278Z,99.90
2019-01-08T22:34:09.490Z,99.90
2019-01-08T22:36:39.040Z,99.90
2019-01-08T22:39:08.615Z,99.90
2019-01-08T22:41:38.095Z,99.90
2019-01-08T22:44:07.522Z,99.90
2019-01-08T22:46:36.722Z,99.90
2019-01-08T22:49:06.121Z,99.90
2019-01-08T22:51:36.519Z,99.90
2019-01-08T22:54:08.111Z,99.90
2019-01-08T22:56:39.561Z,99.90
2019-01-08T22:59:09.062Z,99.90
2019-01-08T23:01:39.438Z,99.90
2019-01-08T23:04:11.228Z,99.90
2019-01-08T23:06:40.599Z,99.90
2019-01-08T23:09:10.876Z,99.90
2019-01-08T23:11:42.005Z,99.90
2019-01-08T23:14:10.676Z,99.90
2019-01-08T23:16:39.395Z,99.90
2019-01-08T23:19:08.716Z,99.90
2019-01-08T23:21:40.054Z,99.90
2019-01-08T23:24:09.127Z,99.90
2019-01-08T23:26:39.005Z,99.90
2019-01-08T23:29:08.466Z,99.90
2019-01-08T23:31:38.053Z,99.90
2019-01-08T23:34:07.569Z,99.90
2019-01-08T23:36:39.076Z,99.90
2019-01-08T23:39:08.656Z,99.90
2019-01-08T23:41:38.029Z,99.90
2019-01-08T23:44:07.373Z,99.90
2019-01-08T23:46:36.691Z,99.90
2019-01-08T23:49:06.254Z,99.90
2019-01-08T23:51:35.699Z,99.90
2019-01-08T23:54:05.303Z,99.90
2019-01-08T23:56:35.589Z,99.90
2019-01-08T23:59:05.047Z,99.90
